Portada
METAR-TAF:

METAR-TAF

Aeropuertos :

Alpnach, Suiza

latitud: 46-56-19N, longitud: 8-17-03E, altitud: 440 m

Observación

El informe se hizo hace 14 minutos, a las 15:20 UTC
Viento 8 kt del este-noreste, variando entre noreste y este
Temperatura 10°C
Humedad 50%
Presión 1015 hPa
Visibilidad 10 km o más

METAR: LSMA 011520Z AUTO 06008KT 040V100 9999NDV NCD 10/M00 Q1015 RMK

Hora: 17:34 (15:34 UTC)


TAF: falta

Observaciones y pronósticos meteorológicos de más de 4000 aeropuertos (mensajes METAR y TAF).

Los puntos amarillos y rojos representan las estaciones disponibles.

Ponga el ratón en el punto deseado para ver el nombre de la estación.

Haga clic para ver las observaciones y los pronósticos meteorológicos.

Para cambiar el mapa : haga clic en los botones verdes con una cruz de color negro para hacer un zoom, en el botón verde con un guión para alejar o en las flechas verdes para mapas adyacentes.


METAR-TAF: